Sunday, September 21, 2014
12:14 UTC
  |  Log In   |  Register Free
Airport Search:

Raleigh-Durham International Airport
(KRDU)

Airport information sponsored by:
Landmark Aviation - RDU at Raleigh-Durham International (KRDU), Raleigh/Durham, NC
FAA data valid effective September 18, 2014 - November 13, 2014 (unless otherwise noted).

 
 
 
 
 
 
 
 
 
 
 
 
 
 

Current Aviation Weather for Raleigh-Durham International Airport (KRDU)

The most recent METAR observation for KRDU was updated at: 1115
METAR Summary (Translated METAR)
KRDU
211051Z 00000KT 10SM SCT006 SCT250 17/16 A2991 RMK AO2 SLP125 T01720156 $
KIGX
211156Z AUTO 30006KT 10SM CLR 17/16 A2992 RMK AO2 SLP128 T01670156 10189 20167 53003 TSNO
(14 nm NW from KRDU)
KTTA
211055Z AUTO 00000KT 10SM CLR 17/17 A2990 RMK AO2 T01670165
(23.4 nm SW from KRDU)
TAF Summary (Translated TAF)
KRDU
210733Z 2108/2206 01004KT P6SM BKN250 FM211500 31010KT P6SM SKC FM211900 26010G16KT P6SM SKC FM212300 23007KT P6SM SKC
  Airport Weather Conditions for KRDU

 Current Weather at RDU
63° F
Partly Cloudy
Northwest winds at 4.6 mph
RDU NOAA Radar

Pressure: 29.90 in
Humidity: 90%
Wind: Northwest at 4.6 MPH (4 KT)
Dew Point: 60.1°F
Visibility: 10.00 mi


Airport Weather Forecast for KRDU

Translated METAR and TAF for KRDU
Translated METAR for KRDU (1208 UTC 21 September 2014)
found at http://aviationweather.gov/adds/metars/
 
METAR text: KRDU 211151Z 00000KT 10SM SCT250 17/16 A2991 RMK AO2 SLP125 T01720156 10183 20172 53002 $
Conditions at: KRDU (RALEIGH/DURHAM , NC, US) observed 1151 UTC 21 September 2014
Temperature: 17.2°C (63°F)
Dewpoint: 15.6°C (60°F) [RH = 90%]
Pressure (altimeter): 29.91 inches Hg (1013.0 mb)
[Sea-level pressure: 1012.5 mb]
Winds: calm
Visibility: 10 or more miles (16+ km)
Ceiling: at least 12,000 feet AGL
Clouds: scattered clouds at 25000 feet AGL
Weather:
SOME DATA ABOVE MAY BE INACCURATE!!!
"$" is an indication the sensor requires maintenance
Translated TAF for KRDU
Forecast for: KRDU (RALEIGH/DURHAM , NC, US)
TAF Text: KRDU 211140Z 2112/2212 31004KT P6SM SKC
Forecast period: 1200 to 1600 UTC 21 September 2014
Forecast type: FROM: standard forecast or significant change
Winds: from the NW (310 degrees) at 5 MPH (4 knots; 2.1 m/s)
Visibility: 6 or more miles (10+ km)
Clouds: clear skies
Weather: no significant weather forecast for this period
TAF Text: FM211600 28010KT P6SM SKC
Forecast period: 1600 to 2100 UTC 21 September 2014
Forecast type: FROM: standard forecast or significant change
Winds: from the W (280 degrees) at 12 MPH (10 knots; 5.2 m/s)
Visibility: 6 or more miles (10+ km)
Clouds: clear skies
Weather: no significant weather forecast for this period
TAF Text: FM212100 24012KT P6SM SKC
Forecast period: 2100 UTC 21 September 2014 to 0000 UTC 22 September 2014
Forecast type: FROM: standard forecast or significant change
Winds: from the WSW (240 degrees) at 14 MPH (12 knots; 6.2 m/s)
Visibility: 6 or more miles (10+ km)
Clouds: clear skies
Weather: no significant weather forecast for this period
TAF Text: FM220000 27005KT P6SM SCT050
Forecast period: 0000 to 1200 UTC 22 September 2014
Forecast type: FROM: standard forecast or significant change
Winds: from the W (270 degrees) at 6 MPH (5 knots; 2.6 m/s)
Visibility: 6 or more miles (10+ km)
Clouds: scattered clouds at 5000 feet AGL
Weather: no significant weather forecast for this period

Find All Airport Services Find A Hotel Find A Rental Car Find A Golf Course Find A Restaurant $100 Hamburger



FBO's on the Field
FBO Company Facility Photos Services Transportation Aviation Fuel Prices: Prices include tax
Catering Weather Repair Courtesy Rental Type 100LL JetA JetA+ MOGAS 8087
 
Landmark Aviation - RDU

Landmark Aviation - RDU logo
Currently rated 4.4 by 2 people
FS:
Last Updated: Sep-19
Login to update fuel prices
SS:
Contact Landmark Aviation - RDUMore FBO Information
 
Tac Air - RDU

Currently rated 1.8 by 3 people
FS:Avfuel
Last Updated: Sep-19
Login to update fuel prices
SS:
Contact Tac Air - RDUMore FBO Information
 
Add another FBO Facility Photos Catering Weather Repair Courtesy Rental Type 100LL JetA JetA+ MOGAS 8087
Services Transportation Aviation Fuel Prices: Prices include tax


model-print
model-print
model-print
model-print